sensor_id;sensor_type;location;lat;lon;timestamp;pressure;altitude;pressure_sealevel;temperature
71960;BMP280;59832;51.146;14.024;2023-08-06T00:00:29;97549.63;;;15.36
71960;BMP280;59832;51.146;14.024;2023-08-06T00:02:56;97547.44;;;15.34
71960;BMP280;59832;51.146;14.024;2023-08-06T00:05:22;97545.66;;;15.31
71960;BMP280;59832;51.146;14.024;2023-08-06T00:07:50;97534.66;;;15.30
71960;BMP280;59832;51.146;14.024;2023-08-06T00:10:16;97538.53;;;15.42
71960;BMP280;59832;51.146;14.024;2023-08-06T00:12:43;97527.09;;;15.47
71960;BMP280;59832;51.146;14.024;2023-08-06T00:15:10;97524.03;;;15.32
71960;BMP280;59832;51.146;14.024;2023-08-06T00:17:37;97515.66;;;15.28
71960;BMP280;59832;51.146;14.024;2023-08-06T00:20:04;97511.66;;;15.27
71960;BMP280;59832;51.146;14.024;2023-08-06T00:22:33;97505.31;;;15.35
71960;BMP280;59832;51.146;14.024;2023-08-06T00:25:00;97502.78;;;15.32
71960;BMP280;59832;51.146;14.024;2023-08-06T00:27:26;97511.53;;;15.34
71960;BMP280;59832;51.146;14.024;2023-08-06T00:29:53;97518.63;;;15.26
71960;BMP280;59832;51.146;14.024;2023-08-06T00:32:21;97520.25;;;15.17
71960;BMP280;59832;51.146;14.024;2023-08-06T00:34:48;97523.16;;;15.15
71960;BMP280;59832;51.146;14.024;2023-08-06T00:37:16;97519.53;;;15.13
71960;BMP280;59832;51.146;14.024;2023-08-06T00:39:43;97511.31;;;14.98
71960;BMP280;59832;51.146;14.024;2023-08-06T00:42:10;97512.56;;;15.13
71960;BMP280;59832;51.146;14.024;2023-08-06T00:44:37;97518.63;;;15.26
71960;BMP280;59832;51.146;14.024;2023-08-06T00:47:05;97510.97;;;15.23
71960;BMP280;59832;51.146;14.024;2023-08-06T00:49:32;97509.28;;;15.13
71960;BMP280;59832;51.146;14.024;2023-08-06T00:51:59;97503.91;;;15.04
71960;BMP280;59832;51.146;14.024;2023-08-06T00:54:27;97503.50;;;15.09
71960;BMP280;59832;51.146;14.024;2023-08-06T00:56:54;97501.81;;;14.99
71960;BMP280;59832;51.146;14.024;2023-08-06T00:59:20;97505.38;;;15.05
71960;BMP280;59832;51.146;14.024;2023-08-06T01:01:47;97497.69;;;15.05
71960;BMP280;59832;51.146;14.024;2023-08-06T01:04:14;97487.63;;;15.17
71960;BMP280;59832;51.146;14.024;2023-08-06T01:07:04;97486.50;;;15.18
71960;BMP280;59832;51.146;14.024;2023-08-06T01:13:11;97473.38;;;15.16
71960;BMP280;59832;51.146;14.024;2023-08-06T01:15:46;97472.56;;;15.19
71960;BMP280;59832;51.146;14.024;2023-08-06T01:18:15;97466.34;;;15.20
71960;BMP280;59832;51.146;14.024;2023-08-06T01:20:42;97463.50;;;15.15
71960;BMP280;59832;51.146;14.024;2023-08-06T01:23:08;97455.47;;;15.13
71960;BMP280;59832;51.146;14.024;2023-08-06T01:25:48;97452.56;;;15.11
71960;BMP280;59832;51.146;14.024;2023-08-06T01:28:29;97441.91;;;15.12
71960;BMP280;59832;51.146;14.024;2023-08-06T01:31:01;97432.47;;;15.09
71960;BMP280;59832;51.146;14.024;2023-08-06T01:33:32;97432.16;;;15.04
71960;BMP280;59832;51.146;14.024;2023-08-06T01:35:59;97424.78;;;15.09
71960;BMP280;59832;51.146;14.024;2023-08-06T01:38:25;97417.19;;;15.02
71960;BMP280;59832;51.146;14.024;2023-08-06T01:40:54;97416.06;;;15.03
71960;BMP280;59832;51.146;14.024;2023-08-06T01:43:20;97412.44;;;15.01
71960;BMP280;59832;51.146;14.024;2023-08-06T01:45:47;97409.00;;;15.11
71960;BMP280;59832;51.146;14.024;2023-08-06T01:48:13;97403.25;;;15.03
71960;BMP280;59832;51.146;14.024;2023-08-06T01:50:40;97405.81;;;15.03
71960;BMP280;59832;51.146;14.024;2023-08-06T01:53:06;97401.75;;;15.06
71960;BMP280;59832;51.146;14.024;2023-08-06T01:55:33;97406.94;;;15.02
71960;BMP280;59832;51.146;14.024;2023-08-06T01:57:59;97410.56;;;15.05
71960;BMP280;59832;51.146;14.024;2023-08-06T02:00:26;97407.66;;;15.03
71960;BMP280;59832;51.146;14.024;2023-08-06T02:02:54;97405.66;;;15.14
71960;BMP280;59832;51.146;14.024;2023-08-06T02:05:20;97411.25;;;15.09
71960;BMP280;59832;51.146;14.024;2023-08-06T02:07:47;97412.13;;;14.99
71960;BMP280;59832;51.146;14.024;2023-08-06T02:10:13;97416.91;;;14.97
71960;BMP280;59832;51.146;14.024;2023-08-06T02:12:40;97420.56;;;14.96
71960;BMP280;59832;51.146;14.024;2023-08-06T02:15:06;97419.09;;;14.95
71960;BMP280;59832;51.146;14.024;2023-08-06T02:17:33;97421.47;;;14.59
71960;BMP280;59832;51.146;14.024;2023-08-06T02:20:00;97408.97;;;14.64
71960;BMP280;59832;51.146;14.024;2023-08-06T02:22:27;97407.50;;;14.63
71960;BMP280;59832;51.146;14.024;2023-08-06T02:24:53;97411.91;;;14.59
71960;BMP280;59832;51.146;14.024;2023-08-06T02:27:20;97405.81;;;14.53
71960;BMP280;59832;51.146;14.024;2023-08-06T02:29:46;97410.94;;;14.53
71960;BMP280;59832;51.146;14.024;2023-08-06T02:32:12;97407.53;;;14.60
71960;BMP280;59832;51.146;14.024;2023-08-06T02:34:39;97389.94;;;14.65
71960;BMP280;59832;51.146;14.024;2023-08-06T02:37:05;97396.44;;;14.70
71960;BMP280;59832;51.146;14.024;2023-08-06T02:39:32;97393.16;;;14.69
71960;BMP280;59832;51.146;14.024;2023-08-06T02:42:00;97397.47;;;14.76
71960;BMP280;59832;51.146;14.024;2023-08-06T02:44:29;97387.53;;;14.78
71960;BMP280;59832;51.146;14.024;2023-08-06T02:46:55;97381.66;;;14.77
71960;BMP280;59832;51.146;14.024;2023-08-06T02:49:22;97376.97;;;14.76
71960;BMP280;59832;51.146;14.024;2023-08-06T02:51:48;97379.09;;;14.77
71960;BMP280;59832;51.146;14.024;2023-08-06T02:54:15;97388.25;;;14.78
71960;BMP280;59832;51.146;14.024;2023-08-06T02:56:45;97379.47;;;14.79
71960;BMP280;59832;51.146;14.024;2023-08-06T02:59:13;97392.28;;;14.79
71960;BMP280;59832;51.146;14.024;2023-08-06T03:01:39;97383.13;;;14.78
71960;BMP280;59832;51.146;14.024;2023-08-06T03:04:06;97384.97;;;14.78
71960;BMP280;59832;51.146;14.024;2023-08-06T03:06:32;97372.16;;;14.78
71960;BMP280;59832;51.146;14.024;2023-08-06T03:08:59;97377.25;;;14.82
71960;BMP280;59832;51.146;14.024;2023-08-06T03:11:25;97370.31;;;14.78
71960;BMP280;59832;51.146;14.024;2023-08-06T03:13:52;97364.16;;;14.76
71960;BMP280;59832;51.146;14.024;2023-08-06T03:16:18;97363.44;;;14.75
71960;BMP280;59832;51.146;14.024;2023-08-06T03:18:45;97368.56;;;14.75
71960;BMP280;59832;51.146;14.024;2023-08-06T03:21:11;97362.72;;;14.75
71960;BMP280;59832;51.146;14.024;2023-08-06T03:23:38;97362.38;;;14.73
71960;BMP280;59832;51.146;14.024;2023-08-06T03:26:04;97359.47;;;14.71
71960;BMP280;59832;51.146;14.024;2023-08-06T03:28:31;97346.63;;;14.74
71960;BMP280;59832;51.146;14.024;2023-08-06T03:31:04;97339.00;;;14.71
71960;BMP280;59832;51.146;14.024;2023-08-06T03:33:30;97335.69;;;14.70
71960;BMP280;59832;51.146;14.024;2023-08-06T03:35:57;97333.50;;;14.69
71960;BMP280;59832;51.146;14.024;2023-08-06T03:38:23;97330.63;;;14.67
71960;BMP280;59832;51.146;14.024;2023-08-06T03:40:50;97325.50;;;14.67
71960;BMP280;59832;51.146;14.024;2023-08-06T03:43:16;97337.19;;;14.68
71960;BMP280;59832;51.146;14.024;2023-08-06T03:45:43;97328.47;;;14.65
71960;BMP280;59832;51.146;14.024;2023-08-06T03:48:09;97322.63;;;14.65
71960;BMP280;59832;51.146;14.024;2023-08-06T03:50:36;97319.25;;;14.68
71960;BMP280;59832;51.146;14.024;2023-08-06T03:53:02;97316.69;;;14.68
71960;BMP280;59832;51.146;14.024;2023-08-06T03:55:29;97312.31;;;14.68
71960;BMP280;59832;51.146;14.024;2023-08-06T03:57:55;97318.16;;;14.69
71960;BMP280;59832;51.146;14.024;2023-08-06T04:00:22;97311.19;;;14.69
71960;BMP280;59832;51.146;14.024;2023-08-06T04:02:48;97311.19;;;14.69
71960;BMP280;59832;51.146;14.024;2023-08-06T04:05:15;97298.75;;;14.68
71960;BMP280;59832;51.146;14.024;2023-08-06T04:07:43;97304.25;;;14.70
71960;BMP280;59832;51.146;14.024;2023-08-06T04:10:09;97304.25;;;14.70
71960;BMP280;59832;51.146;14.024;2023-08-06T04:12:36;97299.84;;;14.70
71960;BMP280;59832;51.146;14.024;2023-08-06T04:15:06;97302.00;;;14.72
71960;BMP280;59832;51.146;14.024;2023-08-06T04:17:32;97294.28;;;14.75
71960;BMP280;59832;51.146;14.024;2023-08-06T04:19:59;97292.16;;;14.70
71960;BMP280;59832;51.146;14.024;2023-08-06T04:22:26;97289.94;;;14.72
71960;BMP280;59832;51.146;14.024;2023-08-06T04:24:52;97284.03;;;14.75
71960;BMP280;59832;51.146;14.024;2023-08-06T04:27:19;97277.13;;;14.72
71960;BMP280;59832;51.146;14.024;2023-08-06T04:29:46;97276.06;;;14.70
71960;BMP280;59832;51.146;14.024;2023-08-06T04:32:13;97277.91;;;14.69
71960;BMP280;59832;51.146;14.024;2023-08-06T04:34:39;97278.28;;;14.68
71960;BMP280;59832;51.146;14.024;2023-08-06T04:37:06;97265.47;;;14.68
71960;BMP280;59832;51.146;14.024;2023-08-06T04:39:32;97264.38;;;14.69
71960;BMP280;59832;51.146;14.024;2023-08-06T04:41:59;97257.09;;;14.67
71960;BMP280;59832;51.146;14.024;2023-08-06T04:44:25;97254.91;;;14.66
71960;BMP280;59832;51.146;14.024;2023-08-06T04:46:52;97256.78;;;14.65
71960;BMP280;59832;51.146;14.024;2023-08-06T04:49:21;97249.78;;;14.66
71960;BMP280;59832;51.146;14.024;2023-08-06T04:51:48;97258.59;;;14.65
71960;BMP280;59832;51.146;14.024;2023-08-06T04:54:14;97256.03;;;14.65
71960;BMP280;59832;51.146;14.024;2023-08-06T04:56:41;97250.19;;;14.64
71960;BMP280;59832;51.146;14.024;2023-08-06T04:59:07;97244.34;;;14.64
71960;BMP280;59832;51.146;14.024;2023-08-06T05:01:33;97242.50;;;14.64
71960;BMP280;59832;51.146;14.024;2023-08-06T05:04:00;97244.66;;;14.66
71960;BMP280;59832;51.146;14.024;2023-08-06T05:06:27;97236.59;;;14.67
71960;BMP280;59832;51.146;14.024;2023-08-06T05:08:53;97238.03;;;14.68
71960;BMP280;59832;51.146;14.024;2023-08-06T05:11:19;97243.50;;;14.70
71960;BMP280;59832;51.146;14.024;2023-08-06T05:13:46;97247.13;;;14.73
71960;BMP280;59832;51.146;14.024;2023-08-06T05:16:12;97246.00;;;14.74
71960;BMP280;59832;51.146;14.024;2023-08-06T05:18:39;97234.31;;;14.73
71960;BMP280;59832;51.146;14.024;2023-08-06T05:21:05;97231.03;;;14.72
71960;BMP280;59832;51.146;14.024;2023-08-06T05:23:32;97228.72;;;14.78
71960;BMP280;59832;51.146;14.024;2023-08-06T05:25:58;97232.75;;;14.79
71960;BMP280;59832;51.146;14.024;2023-08-06T05:28:25;97233.47;;;14.79
71960;BMP280;59832;51.146;14.024;2023-08-06T05:30:51;97227.59;;;14.83
71960;BMP280;59832;51.146;14.024;2023-08-06T05:33:18;97227.50;;;14.86
71960;BMP280;59832;51.146;14.024;2023-08-06T05:35:45;97223.09;;;14.87
71960;BMP280;59832;51.146;14.024;2023-08-06T05:38:11;97220.16;;;14.88
71960;BMP280;59832;51.146;14.024;2023-08-06T05:40:38;97215.75;;;14.89
71960;BMP280;59832;51.146;14.024;2023-08-06T05:43:04;97212.78;;;14.90
71960;BMP280;59832;51.146;14.024;2023-08-06T05:45:31;97213.13;;;14.92
71960;BMP280;59832;51.146;14.024;2023-08-06T05:47:57;97212.31;;;14.95
71960;BMP280;59832;51.146;14.024;2023-08-06T05:50:25;97217.06;;;14.97
71960;BMP280;59832;51.146;14.024;2023-08-06T05:52:51;97214.44;;;15.00
71960;BMP280;59832;51.146;14.024;2023-08-06T05:55:19;97221.75;;;15.02
71960;BMP280;59832;51.146;14.024;2023-08-06T05:57:46;97214.84;;;14.99
71960;BMP280;59832;51.146;14.024;2023-08-06T06:00:13;97223.59;;;15.01
71960;BMP280;59832;51.146;14.024;2023-08-06T06:02:39;97220.97;;;15.05
71960;BMP280;59832;51.146;14.024;2023-08-06T06:05:06;97223.06;;;15.10
71960;BMP280;59832;51.146;14.024;2023-08-06T06:07:32;97226.75;;;15.09
71960;BMP280;59832;51.146;14.024;2023-08-06T06:09:59;97219.38;;;15.11
71960;BMP280;59832;51.146;14.024;2023-08-06T06:12:25;97210.56;;;15.12
71960;BMP280;59832;51.146;14.024;2023-08-06T06:14:52;97208.44;;;15.10
71960;BMP280;59832;51.146;14.024;2023-08-06T06:17:19;97217.25;;;15.06
71960;BMP280;59832;51.146;14.024;2023-08-06T06:19:45;97227.13;;;15.07
71960;BMP280;59832;51.146;14.024;2023-08-06T06:22:13;97225.22;;;15.11
71960;BMP280;59832;51.146;14.024;2023-08-06T06:24:40;97221.94;;;15.11
71960;BMP280;59832;51.146;14.024;2023-08-06T06:27:06;97222.59;;;15.15
71960;BMP280;59832;51.146;14.024;2023-08-06T06:29:33;97211.16;;;15.19
71960;BMP280;59832;51.146;14.024;2023-08-06T06:31:59;97214.38;;;15.23
71960;BMP280;59832;51.146;14.024;2023-08-06T06:34:25;97215.09;;;15.24
71960;BMP280;59832;51.146;14.024;2023-08-06T06:36:52;97208.47;;;15.26
71960;BMP280;59832;51.146;14.024;2023-08-06T06:39:20;97222.66;;;15.31
71960;BMP280;59832;51.146;14.024;2023-08-06T06:41:47;97220.47;;;15.29
71960;BMP280;59832;51.146;14.024;2023-08-06T06:44:13;97220.09;;;15.31
71960;BMP280;59832;51.146;14.024;2023-08-06T06:46:40;97213.50;;;15.30
71960;BMP280;59832;51.146;14.024;2023-08-06T06:49:07;97217.53;;;15.31
71960;BMP280;59832;51.146;14.024;2023-08-06T06:51:33;97222.59;;;15.35
71960;BMP280;59832;51.146;14.024;2023-08-06T06:54:00;97224.44;;;15.34
71960;BMP280;59832;51.146;14.024;2023-08-06T06:56:26;97224.34;;;15.38
71960;BMP280;59832;51.146;14.024;2023-08-06T06:58:53;97222.53;;;15.38
71960;BMP280;59832;51.146;14.024;2023-08-06T07:01:19;97223.00;;;15.33
71960;BMP280;59832;51.146;14.024;2023-08-06T07:03:46;97218.50;;;15.37
71960;BMP280;59832;51.146;14.024;2023-08-06T07:06:12;97227.66;;;15.38
71960;BMP280;59832;51.146;14.024;2023-08-06T07:08:39;97226.53;;;15.39
71960;BMP280;59832;51.146;14.024;2023-08-06T07:11:06;97219.72;;;15.33
71960;BMP280;59832;51.146;14.024;2023-08-06T07:13:34;97225.59;;;15.29
71960;BMP280;59832;51.146;14.024;2023-08-06T07:16:00;97223.03;;;15.29
71960;BMP280;59832;51.146;14.024;2023-08-06T07:18:27;97227.00;;;15.34
71960;BMP280;59832;51.146;14.024;2023-08-06T07:20:54;97230.28;;;15.35
71960;BMP280;59832;51.146;14.024;2023-08-06T07:23:22;97234.03;;;15.30
71960;BMP280;59832;51.146;14.024;2023-08-06T07:25:49;97227.53;;;15.25
71960;BMP280;59832;51.146;14.024;2023-08-06T07:28:16;97225.34;;;15.24
71960;BMP280;59832;51.146;14.024;2023-08-06T07:30:43;97219.56;;;15.20
71960;BMP280;59832;51.146;14.024;2023-08-06T07:33:10;97218.47;;;15.21
71960;BMP280;59832;51.146;14.024;2023-08-06T07:35:37;97218.38;;;15.24
71960;BMP280;59832;51.146;14.024;2023-08-06T07:38:04;97212.16;;;15.25
71960;BMP280;59832;51.146;14.024;2023-08-06T07:40:30;97214.34;;;15.27
71960;BMP280;59832;51.146;14.024;2023-08-06T07:42:57;97212.06;;;15.29
71960;BMP280;59832;51.146;14.024;2023-08-06T07:45:24;97215.56;;;15.39
71960;BMP280;59832;51.146;14.024;2023-08-06T07:47:50;97213.91;;;15.48
71960;BMP280;59832;51.146;14.024;2023-08-06T07:50:17;97218.63;;;15.50
71960;BMP280;59832;51.146;14.024;2023-08-06T07:52:44;97222.56;;;15.54
71960;BMP280;59832;51.146;14.024;2023-08-06T07:55:10;97211.47;;;15.61
71960;BMP280;59832;51.146;14.024;2023-08-06T07:57:37;97202.03;;;15.54
71960;BMP280;59832;51.146;14.024;2023-08-06T08:00:05;97203.44;;;15.59
71960;BMP280;59832;51.146;14.024;2023-08-06T08:02:31;97197.22;;;15.56
71960;BMP280;59832;51.146;14.024;2023-08-06T08:04:58;97192.84;;;15.57
71960;BMP280;59832;51.146;14.024;2023-08-06T08:07:24;97190.53;;;15.62
71960;BMP280;59832;51.146;14.024;2023-08-06T08:09:51;97188.66;;;15.63
71960;BMP280;59832;51.146;14.024;2023-08-06T08:12:17;97180.50;;;15.68
71960;BMP280;59832;51.146;14.024;2023-08-06T08:14:44;97180.38;;;15.75
71960;BMP280;59832;51.146;14.024;2023-08-06T08:17:11;97182.06;;;15.81
71960;BMP280;59832;51.146;14.024;2023-08-06T08:19:39;97177.47;;;15.89
71960;BMP280;59832;51.146;14.024;2023-08-06T08:22:06;97174.91;;;15.89
71960;BMP280;59832;51.146;14.024;2023-08-06T08:24:33;97172.03;;;15.71
71960;BMP280;59832;51.146;14.024;2023-08-06T08:26:59;97164.63;;;15.73
71960;BMP280;59832;51.146;14.024;2023-08-06T08:29:26;97168.09;;;15.82
71960;BMP280;59832;51.146;14.024;2023-08-06T08:31:52;97157.44;;;15.68
71960;BMP280;59832;51.146;14.024;2023-08-06T08:34:19;97165.34;;;15.73
71960;BMP280;59832;51.146;14.024;2023-08-06T08:36:46;97166.50;;;15.72
71960;BMP280;59832;51.146;14.024;2023-08-06T08:39:13;97160.34;;;15.70
71960;BMP280;59832;51.146;14.024;2023-08-06T08:41:42;97150.16;;;15.66
71960;BMP280;59832;51.146;14.024;2023-08-06T08:44:09;97154.72;;;15.75
71960;BMP280;59832;51.146;14.024;2023-08-06T08:46:40;97155.44;;;15.75
71960;BMP280;59832;51.146;14.024;2023-08-06T08:49:08;97146.28;;;15.74
71960;BMP280;59832;51.146;14.024;2023-08-06T08:51:35;97145.66;;;15.70
71960;BMP280;59832;51.146;14.024;2023-08-06T08:54:07;97141.00;;;15.65
71960;BMP280;59832;51.146;14.024;2023-08-06T08:56:34;97136.75;;;15.59
71960;BMP280;59832;51.146;14.024;2023-08-06T08:59:01;97143.38;;;15.56
71960;BMP280;59832;51.146;14.024;2023-08-06T09:01:28;97142.63;;;15.75
71960;BMP280;59832;51.146;14.024;2023-08-06T09:03:55;97141.00;;;15.81
71960;BMP280;59832;51.146;14.024;2023-08-06T09:06:25;97134.34;;;15.68
71960;BMP280;59832;51.146;14.024;2023-08-06T09:09:01;97134.13;;;15.62
71960;BMP280;59832;51.146;14.024;2023-08-06T09:11:35;97129.63;;;15.66
71960;BMP280;59832;51.146;14.024;2023-08-06T09:14:06;97129.56;;;15.70
71960;BMP280;59832;51.146;14.024;2023-08-06T09:16:37;97130.91;;;15.74
71960;BMP280;59832;51.146;14.024;2023-08-06T09:19:22;97119.19;;;15.73
71960;BMP280;59832;51.146;14.024;2023-08-06T09:21:51;97124.56;;;15.63
71960;BMP280;59832;51.146;14.024;2023-08-06T09:24:18;97128.19;;;15.65
71960;BMP280;59832;51.146;14.024;2023-08-06T09:26:45;97127.22;;;15.75
71960;BMP280;59832;51.146;14.024;2023-08-06T09:29:12;97130.66;;;15.69
71960;BMP280;59832;51.146;14.024;2023-08-06T09:31:42;97128.91;;;15.82
71960;BMP280;59832;51.146;14.024;2023-08-06T09:34:17;97123.53;;;15.93
71960;BMP280;59832;51.146;14.024;2023-08-06T09:36:50;97123.44;;;15.96
71960;BMP280;59832;51.146;14.024;2023-08-06T09:39:18;97126.75;;;15.97
71960;BMP280;59832;51.146;14.024;2023-08-06T09:41:46;97128.91;;;15.98
71960;BMP280;59832;51.146;14.024;2023-08-06T09:44:19;97129.03;;;16.07
71960;BMP280;59832;51.146;14.024;2023-08-06T09:46:55;97125.19;;;16.15
71960;BMP280;59832;51.146;14.024;2023-08-06T09:49:29;97126.72;;;16.13
71960;BMP280;59832;51.146;14.024;2023-08-06T09:52:10;97125.47;;;16.05
71960;BMP280;59832;51.146;14.024;2023-08-06T09:54:37;97122.91;;;16.05
71960;BMP280;59832;51.146;14.024;2023-08-06T09:57:04;97122.41;;;15.94
71960;BMP280;59832;51.146;14.024;2023-08-06T09:59:32;97116.63;;;15.90
71960;BMP280;59832;51.146;14.024;2023-08-06T10:01:58;97117.19;;;15.97
71960;BMP280;59832;51.146;14.024;2023-08-06T10:04:25;97116.22;;;15.91
71960;BMP280;59832;51.146;14.024;2023-08-06T10:07:04;97106.31;;;15.93
71960;BMP280;59832;51.146;14.024;2023-08-06T10:09:31;97111.66;;;15.99
71960;BMP280;59832;51.146;14.024;2023-08-06T10:11:57;97099.75;;;15.76
71960;BMP280;59832;51.146;14.024;2023-08-06T10:14:36;97096.56;;;16.01
71960;BMP280;59832;51.146;14.024;2023-08-06T10:17:03;97098.06;;;16.14
71960;BMP280;59832;51.146;14.024;2023-08-06T10:19:31;97098.97;;;16.08
71960;BMP280;59832;51.146;14.024;2023-08-06T10:22:17;97096.06;;;16.06
71960;BMP280;59832;51.146;14.024;2023-08-06T10:24:48;97094.94;;;16.07
71960;BMP280;59832;51.146;14.024;2023-08-06T10:27:34;97091.91;;;16.12
71960;BMP280;59832;51.146;14.024;2023-08-06T10:30:21;97084.34;;;16.21
71960;BMP280;59832;51.146;14.024;2023-08-06T10:32:50;97080.78;;;16.02
71960;BMP280;59832;51.146;14.024;2023-08-06T10:35:37;97084.72;;;15.74
71960;BMP280;59832;51.146;14.024;2023-08-06T10:38:08;97079.13;;;15.63
71960;BMP280;59832;51.146;14.024;2023-08-06T10:40:41;97073.03;;;15.57
71960;BMP280;59832;51.146;14.024;2023-08-06T10:43:25;97072.09;;;15.51
71960;BMP280;59832;51.146;14.024;2023-08-06T10:45:52;97072.00;;;15.55
71960;BMP280;59832;51.146;14.024;2023-08-06T10:48:29;97067.28;;;15.53
71960;BMP280;59832;51.146;14.024;2023-08-06T10:50:56;97062.47;;;15.39
71960;BMP280;59832;51.146;14.024;2023-08-06T10:53:23;97064.00;;;15.53
71960;BMP280;59832;51.146;14.024;2023-08-06T10:55:50;97062.47;;;15.55
71960;BMP280;59832;51.146;14.024;2023-08-06T10:58:16;97055.19;;;15.54
71960;BMP280;59832;51.146;14.024;2023-08-06T11:00:43;97058.00;;;15.59
71960;BMP280;59832;51.146;14.024;2023-08-06T11:03:09;97050.44;;;15.68
71960;BMP280;59832;51.146;14.024;2023-08-06T11:05:36;97054.13;;;15.67
71960;BMP280;59832;51.146;14.024;2023-08-06T11:08:03;97048.25;;;15.67
71960;BMP280;59832;51.146;14.024;2023-08-06T11:10:29;97052.63;;;15.70
71960;BMP280;59832;51.146;14.024;2023-08-06T11:13:01;97040.25;;;15.81
71960;BMP280;59832;51.146;14.024;2023-08-06T11:15:28;97046.41;;;15.83
71960;BMP280;59832;51.146;14.024;2023-08-06T11:17:54;97044.72;;;15.93
71960;BMP280;59832;51.146;14.024;2023-08-06T11:20:21;97048.31;;;15.96
71960;BMP280;59832;51.146;14.024;2023-08-06T11:22:50;97043.09;;;15.99
71960;BMP280;59832;51.146;14.024;2023-08-06T11:25:20;97038.53;;;15.91
71960;BMP280;59832;51.146;14.024;2023-08-06T11:27:47;97042.72;;;15.85
71960;BMP280;59832;51.146;14.024;2023-08-06T11:30:14;97041.00;;;15.94
71960;BMP280;59832;51.146;14.024;2023-08-06T11:32:50;97033.66;;;15.96
71960;BMP280;59832;51.146;14.024;2023-08-06T11:35:16;97033.47;;;16.03
71960;BMP280;59832;51.146;14.024;2023-08-06T11:37:44;97035.84;;;16.10
71960;BMP280;59832;51.146;14.024;2023-08-06T11:40:14;97038.56;;;16.19
71960;BMP280;59832;51.146;14.024;2023-08-06T11:42:41;97034.94;;;16.17
71960;BMP280;59832;51.146;14.024;2023-08-06T11:45:08;97040.34;;;16.06
71960;BMP280;59832;51.146;14.024;2023-08-06T11:47:38;97038.81;;;16.09
71960;BMP280;59832;51.146;14.024;2023-08-06T11:50:07;97029.38;;;15.90
71960;BMP280;59832;51.146;14.024;2023-08-06T11:52:33;97030.63;;;15.85
71960;BMP280;59832;51.146;14.024;2023-08-06T11:57:34;97032.84;;;15.99
71960;BMP280;59832;51.146;14.024;2023-08-06T12:00:06;97029.13;;;16.00
71960;BMP280;59832;51.146;14.024;2023-08-06T12:02:35;97040.94;;;15.98
71960;BMP280;59832;51.146;14.024;2023-08-06T12:05:09;97037.91;;;15.87
71960;BMP280;59832;51.146;14.024;2023-08-06T12:07:38;97044.56;;;15.84
71960;BMP280;59832;51.146;14.024;2023-08-06T12:10:05;97037.28;;;15.82
71960;BMP280;59832;51.146;14.024;2023-08-06T12:12:31;97045.22;;;15.88
71960;BMP280;59832;51.146;14.024;2023-08-06T12:14:58;97037.03;;;15.93
71960;BMP280;59832;51.146;14.024;2023-08-06T12:17:24;97036.88;;;15.84
71960;BMP280;59832;51.146;14.024;2023-08-06T12:19:51;97037.53;;;15.72
71960;BMP280;59832;51.146;14.024;2023-08-06T12:22:18;97032.25;;;15.79
71960;BMP280;59832;51.146;14.024;2023-08-06T12:24:46;97033.78;;;15.76
71960;BMP280;59832;51.146;14.024;2023-08-06T12:27:13;97034.16;;;15.75
71960;BMP280;59832;51.146;14.024;2023-08-06T12:29:44;97035.22;;;15.77
71960;BMP280;59832;51.146;14.024;2023-08-06T12:32:11;97040.09;;;15.72
71960;BMP280;59832;51.146;14.024;2023-08-06T12:34:38;97031.81;;;15.80
71960;BMP280;59832;51.146;14.024;2023-08-06T12:37:17;97038.44;;;15.94
71960;BMP280;59832;51.146;14.024;2023-08-06T12:39:44;97026.38;;;15.78
71960;BMP280;59832;51.146;14.024;2023-08-06T12:42:10;97025.88;;;15.83
71960;BMP280;59832;51.146;14.024;2023-08-06T12:44:37;97023.88;;;15.91
71960;BMP280;59832;51.146;14.024;2023-08-06T12:47:03;97019.91;;;16.03
71960;BMP280;59832;51.146;14.024;2023-08-06T12:49:30;97028.06;;;16.14
71960;BMP280;59832;51.146;14.024;2023-08-06T12:51:57;97025.09;;;16.15
71960;BMP280;59832;51.146;14.024;2023-08-06T12:54:26;97023.22;;;16.16
71960;BMP280;59832;51.146;14.024;2023-08-06T12:56:53;97027.44;;;16.10
71960;BMP280;59832;51.146;14.024;2023-08-06T12:59:20;97026.19;;;16.30
71960;BMP280;59832;51.146;14.024;2023-08-06T13:01:47;97024.13;;;16.38
71960;BMP280;59832;51.146;14.024;2023-08-06T13:04:14;97018.91;;;16.42
71960;BMP280;59832;51.146;14.024;2023-08-06T13:06:48;97020.66;;;16.45
71960;BMP280;59832;51.146;14.024;2023-08-06T13:09:15;97013.66;;;16.45
71960;BMP280;59832;51.146;14.024;2023-08-06T13:11:42;97021.84;;;16.40
71960;BMP280;59832;51.146;14.024;2023-08-06T13:14:13;97020.03;;;16.53
71960;BMP280;59832;51.146;14.024;2023-08-06T13:16:42;97023.63;;;16.68
71960;BMP280;59832;51.146;14.024;2023-08-06T13:19:09;97022.84;;;16.71
71960;BMP280;59832;51.146;14.024;2023-08-06T13:24:08;97020.16;;;16.75
71960;BMP280;59832;51.146;14.024;2023-08-06T13:26:35;97025.38;;;16.84
71960;BMP280;59832;51.146;14.024;2023-08-06T13:29:02;97026.44;;;16.86
71960;BMP280;59832;51.146;14.024;2023-08-06T13:31:29;97025.69;;;16.99
71960;BMP280;59832;51.146;14.024;2023-08-06T13:33:56;97029.09;;;16.96
71960;BMP280;59832;51.146;14.024;2023-08-06T13:36:27;97023.13;;;16.99
71960;BMP280;59832;51.146;14.024;2023-08-06T13:38:55;97022.41;;;16.85
71960;BMP280;59832;51.146;14.024;2023-08-06T13:41:22;97019.41;;;16.74
71960;BMP280;59832;51.146;14.024;2023-08-06T13:43:49;97022.94;;;16.55
71960;BMP280;59832;51.146;14.024;2023-08-06T13:46:15;97016.66;;;16.56
71960;BMP280;59832;51.146;14.024;2023-08-06T13:48:47;97018.91;;;16.54
71960;BMP280;59832;51.146;14.024;2023-08-06T13:51:18;97020.84;;;16.50
71960;BMP280;59832;51.146;14.024;2023-08-06T13:53:45;97019.31;;;16.53
71960;BMP280;59832;51.146;14.024;2023-08-06T13:56:12;97015.81;;;16.59
71960;BMP280;59832;51.146;14.024;2023-08-06T13:58:39;97018.72;;;16.61
71960;BMP280;59832;51.146;14.024;2023-08-06T14:01:06;97016.44;;;16.76
71960;BMP280;59832;51.146;14.024;2023-08-06T14:03:33;97022.00;;;16.74
71960;BMP280;59832;51.146;14.024;2023-08-06T14:06:00;97016.94;;;16.83
71960;BMP280;59832;51.146;14.024;2023-08-06T14:08:26;97014.50;;;16.93